createdAt,value
2023-01-26T00:00:32.355Z,-3.00
2023-01-26T00:01:04.017Z,-3.00
2023-01-26T00:01:36.034Z,-3.00
2023-01-26T00:01:58.744Z,-3.00
2023-01-26T00:02:21.327Z,-3.00
2023-01-26T00:02:57.289Z,-3.00
2023-01-26T00:03:28.025Z,-3.00
2023-01-26T00:04:00.489Z,-3.00
2023-01-26T00:04:32.127Z,-3.00
2023-01-26T00:05:04.994Z,-3.00
2023-01-26T00:05:37.441Z,-3.00
2023-01-26T00:06:02.268Z,-3.00
2023-01-26T00:06:24.377Z,-3.00
2023-01-26T00:06:55.729Z,-3.00
2023-01-26T00:07:29.006Z,-3.00
2023-01-26T00:07:59.747Z,-3.00
2023-01-26T00:08:31.738Z,-3.00
2023-01-26T00:09:04.380Z,-3.00
2023-01-26T00:09:36.493Z,-2.88
2023-01-26T00:09:58.845Z,-3.00
2023-01-26T00:10:21.581Z,-2.77
2023-01-26T00:10:57.067Z,-2.77
2023-01-26T00:11:28.442Z,-2.77
2023-01-26T00:12:00.394Z,-3.00
2023-01-26T00:12:32.253Z,-2.88
2023-01-26T00:13:03.921Z,-3.00
2023-01-26T00:13:36.626Z,-3.00
2023-01-26T00:13:59.326Z,-3.00
2023-01-26T00:14:22.508Z,-2.88
2023-01-26T00:14:55.570Z,-2.88
2023-01-26T00:15:28.077Z,-2.88
2023-01-26T00:16:00.479Z,-2.88
2023-01-26T00:16:32.112Z,-2.88
2023-01-26T00:17:04.345Z,-2.88
2023-01-26T00:17:34.273Z,-2.88
2023-01-26T00:18:04.621Z,-2.88
2023-01-26T00:18:39.652Z,-2.88
2023-01-26T00:19:02.665Z,-2.88
2023-01-26T00:19:24.961Z,-2.88
2023-01-26T00:19:59.733Z,-2.88
2023-01-26T00:20:31.626Z,-2.88
2023-01-26T00:21:03.777Z,-2.88
2023-01-26T00:21:35.939Z,-2.88
2023-01-26T00:21:58.616Z,-2.88
2023-01-26T00:22:20.910Z,-2.88
2023-01-26T00:22:55.763Z,-2.88
2023-01-26T00:23:27.577Z,-2.88
2023-01-26T00:23:59.642Z,-2.88
2023-01-26T00:24:31.716Z,-2.88
2023-01-26T00:25:03.799Z,-2.88
2023-01-26T00:25:35.595Z,-2.88
2023-01-26T00:25:58.399Z,-2.88
2023-01-26T00:26:20.627Z,-2.88
2023-01-26T00:26:56.077Z,-2.88
2023-01-26T00:27:27.672Z,-2.88
2023-01-26T00:27:59.625Z,-2.88
2023-01-26T00:28:31.712Z,-2.88
2023-01-26T00:29:05.475Z,-2.88
2023-01-26T00:29:37.199Z,-2.88
2023-01-26T00:30:00.038Z,-2.88
2023-01-26T00:30:22.440Z,-2.88
2023-01-26T00:30:55.660Z,-2.88
2023-01-26T00:31:27.817Z,-2.88
2023-01-26T00:32:00.971Z,-2.88
2023-01-26T00:32:31.644Z,-3.00
2023-01-26T00:33:03.669Z,-3.00
2023-01-26T00:33:32.752Z,-3.00
2023-01-26T00:34:04.992Z,-3.00
2023-01-26T00:34:39.645Z,-3.00
2023-01-26T00:35:02.671Z,-3.00
2023-01-26T00:35:25.118Z,-3.00
2023-01-26T00:35:59.583Z,-3.00
2023-01-26T00:36:31.586Z,-3.11
2023-01-26T00:37:03.655Z,-3.11
2023-01-26T00:37:35.645Z,-3.11
2023-01-26T00:37:58.379Z,-3.11
2023-01-26T00:38:21.119Z,-3.11
2023-01-26T00:38:55.658Z,-3.11
2023-01-26T00:39:27.704Z,-3.11
2023-01-26T00:39:59.735Z,-3.11
2023-01-26T00:40:31.497Z,-3.11
2023-01-26T00:41:03.816Z,-3.11
2023-01-26T00:41:35.540Z,-3.11
2023-01-26T00:41:58.521Z,-3.11
2023-01-26T00:42:20.884Z,-3.11
2023-01-26T00:42:55.678Z,-3.11
2023-01-26T00:43:27.713Z,-3.11
2023-01-26T00:43:59.512Z,-3.11
2023-01-26T00:44:31.837Z,-3.11
2023-01-26T00:45:03.715Z,-3.11
2023-01-26T00:45:35.688Z,-3.11
2023-01-26T00:45:58.739Z,-3.11
2023-01-26T00:46:21.157Z,-3.22
2023-01-26T00:46:55.567Z,-3.22
2023-01-26T00:47:27.610Z,-3.22
2023-01-26T00:47:59.632Z,-3.22
2023-01-26T00:48:31.624Z,-3.11
2023-01-26T00:49:03.560Z,-3.11
2023-01-26T00:49:32.772Z,-3.11
2023-01-26T00:50:04.615Z,-3.11
2023-01-26T00:50:39.786Z,-3.11
2023-01-26T00:51:02.836Z,-3.22
2023-01-26T00:51:25.212Z,-3.22
2023-01-26T00:51:59.799Z,-3.22
2023-01-26T00:52:31.652Z,-3.11
2023-01-26T00:53:03.668Z,-3.11
2023-01-26T00:53:35.490Z,-3.11
2023-01-26T00:53:58.447Z,-3.11
2023-01-26T00:54:20.879Z,-3.11
2023-01-26T00:54:55.487Z,-3.11
2023-01-26T00:55:27.610Z,-3.11
2023-01-26T00:55:59.627Z,-3.11
2023-01-26T00:56:31.860Z,-3.11
2023-01-26T00:57:03.651Z,-3.11
2023-01-26T00:57:35.712Z,-3.11
2023-01-26T00:57:58.981Z,-3.11
2023-01-26T00:58:21.373Z,-3.11
2023-01-26T00:58:55.779Z,-3.11
2023-01-26T00:59:27.624Z,-3.11
2023-01-26T00:59:59.510Z,-3.11
2023-01-26T01:00:31.949Z,-3.11
2023-01-26T01:01:04.001Z,-3.11
2023-01-26T01:01:32.788Z,-3.11
2023-01-26T01:02:05.092Z,-3.11
2023-01-26T01:02:39.671Z,-3.11
2023-01-26T01:03:02.487Z,-3.11
2023-01-26T01:03:24.823Z,-3.11
2023-01-26T01:04:00.098Z,-3.11
2023-01-26T01:04:31.604Z,-3.11
2023-01-26T01:05:03.555Z,-3.11
2023-01-26T01:05:32.839Z,-3.11
2023-01-26T01:06:04.498Z,-3.00
2023-01-26T01:06:39.660Z,-3.00
2023-01-26T01:07:03.732Z,-3.00
2023-01-26T01:07:25.820Z,-3.00
2023-01-26T01:07:59.518Z,-3.00
2023-01-26T01:08:31.563Z,-3.00
2023-01-26T01:09:04.055Z,-3.00
2023-01-26T01:09:35.755Z,-3.00
2023-01-26T01:10:00.874Z,-3.11
2023-01-26T01:10:23.462Z,-3.11
2023-01-26T01:10:55.819Z,-3.11
2023-01-26T01:11:27.626Z,-3.11
2023-01-26T01:11:59.492Z,-3.11
2023-01-26T01:12:31.701Z,-3.00
2023-01-26T01:13:03.621Z,-3.00
2023-01-26T01:13:32.770Z,-3.00
2023-01-26T01:14:04.509Z,-3.00
2023-01-26T01:14:39.657Z,-3.00
2023-01-26T01:15:04.141Z,-3.00
2023-01-26T01:15:25.810Z,-3.00
2023-01-26T01:16:01.299Z,-3.00
2023-01-26T01:16:31.469Z,-3.00
2023-01-26T01:17:03.704Z,-3.00
2023-01-26T01:17:38.441Z,-3.00
2023-01-26T01:18:00.400Z,-3.00
2023-01-26T01:18:22.716Z,-2.88
2023-01-26T01:18:55.761Z,-2.88
2023-01-26T01:19:27.706Z,-2.77
2023-01-26T01:19:59.517Z,-2.77
2023-01-26T01:20:31.686Z,-2.77
2023-01-26T01:21:03.567Z,-2.77
2023-01-26T01:21:36.098Z,-2.77
2023-01-26T01:22:00.448Z,-2.77
2023-01-26T01:22:22.836Z,-2.77
2023-01-26T01:22:55.575Z,-2.77
2023-01-26T01:23:27.569Z,-2.77
2023-01-26T01:23:59.704Z,-2.77
2023-01-26T01:24:31.632Z,-2.77
2023-01-26T01:25:03.587Z,-2.77
2023-01-26T01:25:35.528Z,-2.77
2023-01-26T01:25:58.254Z,-2.77
2023-01-26T01:26:20.995Z,-2.77
2023-01-26T01:26:55.623Z,-2.77
2023-01-26T01:27:27.453Z,-2.77
2023-01-26T01:27:59.616Z,-2.77
2023-01-26T01:28:35.027Z,-2.77
2023-01-26T01:28:57.638Z,-2.77
2023-01-26T01:29:33.612Z,-2.77
2023-01-26T01:30:04.841Z,-2.77
2023-01-26T01:30:40.548Z,-2.77
2023-01-26T01:31:03.116Z,-2.77
2023-01-26T01:31:25.558Z,-2.77
2023-01-26T01:32:00.135Z,-2.77
2023-01-26T01:32:32.704Z,-2.77
2023-01-26T01:33:03.807Z,-2.72
2023-01-26T01:33:35.709Z,-2.72
2023-01-26T01:33:58.476Z,-2.72
2023-01-26T01:34:20.887Z,-2.72
2023-01-26T01:34:57.652Z,-2.72
2023-01-26T01:35:27.723Z,-2.77
2023-01-26T01:35:59.925Z,-2.77
2023-01-26T01:36:31.601Z,-2.77
2023-01-26T01:37:03.612Z,-2.77
2023-01-26T01:37:32.930Z,-2.72
2023-01-26T01:38:04.476Z,-2.72
2023-01-26T01:38:40.424Z,-2.72
2023-01-26T01:39:04.355Z,-2.72
2023-01-26T01:39:25.272Z,-2.72
2023-01-26T01:40:01.528Z,-2.77
2023-01-26T01:40:51.654Z,-2.77
2023-01-26T01:41:05.267Z,-2.77
2023-01-26T01:41:36.375Z,-2.77
2023-01-26T01:41:58.764Z,-2.77
2023-01-26T01:42:21.833Z,-2.77
2023-01-26T01:42:55.748Z,-2.77
2023-01-26T01:43:27.745Z,-2.77
2023-01-26T01:44:00.230Z,-2.77
2023-01-26T01:44:35.936Z,-2.77
2023-01-26T01:45:04.258Z,-2.72
2023-01-26T01:45:35.593Z,-2.72
2023-01-26T01:45:58.309Z,-2.72
2023-01-26T01:46:21.458Z,-2.72
2023-01-26T01:46:55.655Z,-2.72
2023-01-26T01:47:28.168Z,-2.72
2023-01-26T01:48:00.736Z,-2.77
2023-01-26T01:48:32.165Z,-2.72
2023-01-26T01:49:05.324Z,-2.77
2023-01-26T01:49:34.664Z,-2.77
2023-01-26T01:50:04.763Z,-2.77
2023-01-26T01:50:39.687Z,-2.77
2023-01-26T01:51:02.350Z,-2.77
2023-01-26T01:51:25.100Z,-2.77
2023-01-26T01:52:01.816Z,-2.77
2023-01-26T01:52:31.777Z,-2.77
2023-01-26T01:53:04.906Z,-2.77
2023-01-26T01:53:35.648Z,-2.77
2023-01-26T01:53:58.263Z,-2.77
2023-01-26T01:54:22.340Z,-2.72
2023-01-26T01:54:55.759Z,-2.72
2023-01-26T01:55:27.624Z,-2.72
2023-01-26T01:55:59.633Z,-2.72
2023-01-26T01:56:32.121Z,-2.72
2023-01-26T01:57:03.742Z,-2.72
2023-01-26T01:57:32.929Z,-2.72
2023-01-26T01:58:04.409Z,-2.72
2023-01-26T01:58:40.443Z,-2.72
2023-01-26T01:59:02.540Z,-2.72
2023-01-26T01:59:25.991Z,-2.77
2023-01-26T02:00:01.093Z,-2.77
2023-01-26T02:00:31.733Z,-2.77
2023-01-26T02:01:04.665Z,-2.77
2023-01-26T02:01:35.795Z,-2.72
2023-01-26T02:01:58.680Z,-2.72
2023-01-26T02:02:23.166Z,-2.72
2023-01-26T02:02:55.911Z,-2.72
2023-01-26T02:03:27.816Z,-2.72
2023-01-26T02:04:32.121Z,-2.72
2023-01-26T02:05:04.677Z,-2.72
2023-01-26T02:05:36.445Z,-2.72
2023-01-26T02:05:59.321Z,-2.72
2023-01-26T02:06:23.809Z,-2.72
2023-01-26T02:06:55.743Z,-2.72
2023-01-26T02:07:27.651Z,-2.72
2023-01-26T02:08:00.569Z,-2.72
2023-01-26T02:08:32.263Z,-2.72
2023-01-26T02:09:03.823Z,-2.72
2023-01-26T02:09:35.648Z,-2.72
2023-01-26T02:09:58.271Z,-2.61
2023-01-26T02:10:21.016Z,-2.61
2023-01-26T02:10:55.852Z,-2.61
2023-01-26T02:11:28.226Z,-2.72
2023-01-26T02:11:59.616Z,-2.72
2023-01-26T02:12:31.710Z,-2.72
2023-01-26T02:13:03.749Z,-2.72
2023-01-26T02:13:32.920Z,-2.72
2023-01-26T02:14:04.575Z,-2.72
2023-01-26T02:14:40.133Z,-2.72
2023-01-26T02:15:02.771Z,-2.72
2023-01-26T02:15:25.415Z,-2.72
2023-01-26T02:16:01.353Z,-2.72
2023-01-26T02:16:31.989Z,-2.72
2023-01-26T02:17:06.278Z,-2.72
2023-01-26T02:17:38.217Z,-2.72
2023-01-26T02:17:58.663Z,-2.72
2023-01-26T02:18:20.910Z,-2.61
2023-01-26T02:18:56.153Z,-2.61
2023-01-26T02:19:28.155Z,-2.61
2023-01-26T02:19:59.967Z,-2.61
2023-01-26T02:20:31.740Z,-2.61
2023-01-26T02:21:03.666Z,-2.61
2023-01-26T02:21:34.678Z,-2.61
2023-01-26T02:22:04.515Z,-2.61
2023-01-26T02:22:40.126Z,-2.61
2023-01-26T02:23:02.776Z,-2.38
2023-01-26T02:23:26.516Z,-2.38
2023-01-26T02:23:59.735Z,-2.61
2023-01-26T02:24:32.057Z,-2.38
2023-01-26T02:25:03.738Z,-2.38
2023-01-26T02:25:32.986Z,-2.38
2023-01-26T02:26:04.522Z,-2.38
2023-01-26T02:26:39.861Z,-2.50
2023-01-26T02:27:02.572Z,-2.50
2023-01-26T02:27:26.376Z,-2.50
2023-01-26T02:27:59.605Z,-2.50
2023-01-26T02:28:32.625Z,-2.50
2023-01-26T02:29:05.159Z,-2.50
2023-01-26T02:29:33.561Z,-2.50
2023-01-26T02:30:05.014Z,-2.50
2023-01-26T02:30:41.814Z,-2.50
2023-01-26T02:31:03.455Z,-2.50
2023-01-26T02:31:26.905Z,-2.50
2023-01-26T02:32:00.807Z,-2.50
2023-01-26T02:32:31.811Z,-2.50
2023-01-26T02:33:05.457Z,-2.50
2023-01-26T02:33:35.657Z,-2.50
2023-01-26T02:33:58.518Z,-2.50
2023-01-26T02:34:21.174Z,-2.50
2023-01-26T02:34:55.776Z,-2.50
2023-01-26T02:35:27.821Z,-2.50
2023-01-26T02:35:59.742Z,-2.50
2023-01-26T02:36:32.244Z,-2.50
2023-01-26T02:37:03.708Z,-2.50
2023-01-26T02:37:35.626Z,-2.50
2023-01-26T02:37:58.547Z,-2.50
2023-01-26T02:38:21.913Z,-2.50
2023-01-26T02:38:55.923Z,-2.50
2023-01-26T02:39:27.901Z,-2.50
2023-01-26T02:39:59.692Z,-2.50
2023-01-26T02:40:31.823Z,-2.50
2023-01-26T02:41:03.810Z,-2.50
2023-01-26T02:41:32.926Z,-2.50
2023-01-26T02:42:04.657Z,-2.50
2023-01-26T02:42:39.728Z,-2.50
2023-01-26T02:43:02.481Z,-2.50
2023-01-26T02:43:25.310Z,-2.50
2023-01-26T02:44:00.073Z,-2.50
2023-01-26T02:44:32.093Z,-2.50
2023-01-26T02:45:03.841Z,-2.50
2023-01-26T02:45:35.567Z,-2.50
2023-01-26T02:45:58.956Z,-2.50
2023-01-26T02:46:20.749Z,-2.50
2023-01-26T02:46:56.012Z,-2.50
2023-01-26T02:47:28.539Z,-2.27
2023-01-26T02:48:00.406Z,-2.27
2023-01-26T02:48:33.314Z,-2.27
2023-01-26T02:49:05.889Z,-2.27
2023-01-26T02:51:59.741Z,-2.27
2023-01-26T02:52:31.609Z,-2.27
2023-01-26T02:53:00.163Z,-2.27
2023-01-26T02:53:33.029Z,-2.27
2023-01-26T02:54:05.747Z,-2.27
2023-01-26T02:54:40.043Z,-2.27
2023-01-26T02:55:02.622Z,-2.27
2023-01-26T02:55:25.338Z,-2.27
2023-01-26T02:55:59.862Z,-2.27
2023-01-26T02:56:32.459Z,-2.27
2023-01-26T02:57:03.562Z,-2.27
2023-01-26T02:57:34.796Z,-2.27
2023-01-26T02:58:04.965Z,-2.27
2023-01-26T02:58:39.678Z,-2.27
2023-01-26T02:59:02.455Z,-2.27
2023-01-26T02:59:24.756Z,-2.27
2023-01-26T03:00:00.815Z,-2.27
2023-01-26T03:00:33.001Z,-2.27
2023-01-26T03:01:04.549Z,-2.27
2023-01-26T03:01:35.743Z,-2.27
2023-01-26T03:01:58.357Z,-2.27
2023-01-26T03:02:21.159Z,-2.27
2023-01-26T03:02:56.191Z,-2.27
2023-01-26T03:03:28.097Z,-2.27
2023-01-26T03:04:00.460Z,-2.27
2023-01-26T03:04:33.606Z,-2.27
2023-01-26T03:05:12.599Z,-2.27
2023-01-26T03:05:36.749Z,-2.27
2023-01-26T03:06:06.094Z,-2.27
2023-01-26T03:06:39.876Z,-2.27
2023-01-26T03:07:03.144Z,-2.27
2023-01-26T03:07:25.613Z,-2.27
2023-01-26T03:07:59.646Z,-2.27
2023-01-26T03:08:33.676Z,-2.27
2023-01-26T03:09:03.679Z,-2.27
2023-01-26T03:09:35.904Z,-2.27
2023-01-26T03:09:58.343Z,-2.27
2023-01-26T03:10:21.009Z,-2.27
2023-01-26T03:10:55.908Z,-2.27
2023-01-26T03:11:27.589Z,-2.27
2023-01-26T03:12:02.161Z,-2.27
2023-01-26T03:12:33.991Z,-2.27
2023-01-26T03:13:03.520Z,-2.27
2023-01-26T03:13:34.223Z,-2.22
2023-01-26T03:14:04.534Z,-2.22
2023-01-26T03:14:39.575Z,-2.27
2023-01-26T03:15:02.645Z,-2.27
2023-01-26T03:15:24.850Z,-2.22
2023-01-26T03:16:02.220Z,-2.22
2023-01-26T03:16:31.615Z,-2.22
2023-01-26T03:17:03.690Z,-2.22
2023-01-26T03:17:41.257Z,-2.22
2023-01-26T03:17:58.980Z,-2.22
2023-01-26T03:18:20.989Z,-2.22
2023-01-26T03:18:55.860Z,-2.22
2023-01-26T03:19:27.554Z,-2.22
2023-01-26T03:19:53.901Z,-2.22
2023-01-26T03:20:32.362Z,-2.22
2023-01-26T03:21:04.453Z,-2.22
2023-01-26T03:21:35.651Z,-2.22
2023-01-26T03:21:58.233Z,-2.22
2023-01-26T03:22:20.728Z,-2.22
2023-01-26T03:22:57.157Z,-2.22
2023-01-26T03:23:27.968Z,-2.22
2023-01-26T03:23:59.814Z,-2.22
2023-01-26T03:24:31.771Z,-2.22
2023-01-26T03:25:04.064Z,-2.22
2023-01-26T03:25:37.387Z,-2.22
2023-01-26T03:26:00.132Z,-2.22
2023-01-26T03:26:22.566Z,-2.22
2023-01-26T03:26:56.064Z,-2.22
2023-01-26T03:27:29.275Z,-2.22
2023-01-26T03:27:59.810Z,-2.22
2023-01-26T03:28:31.726Z,-2.22
2023-01-26T03:29:07.420Z,-2.22
2023-01-26T03:29:32.999Z,-2.22
2023-01-26T03:30:05.799Z,-2.22
2023-01-26T03:30:39.814Z,-2.22
2023-01-26T03:31:02.468Z,-2.11
2023-01-26T03:31:24.945Z,-2.11
2023-01-26T03:31:59.823Z,-2.11
2023-01-26T03:32:31.878Z,-2.11
2023-01-26T03:33:03.700Z,-2.11
2023-01-26T03:33:33.053Z,-2.11
2023-01-26T03:34:04.530Z,-2.11
2023-01-26T03:34:40.084Z,-2.11
2023-01-26T03:35:02.494Z,-2.11
2023-01-26T03:35:24.865Z,-2.22
2023-01-26T03:36:00.097Z,-2.22
2023-01-26T03:36:31.677Z,-2.22
2023-01-26T03:37:03.923Z,-2.22
2023-01-26T03:37:37.505Z,-2.22
2023-01-26T03:37:58.497Z,-2.11
2023-01-26T03:38:21.044Z,-2.11
2023-01-26T03:38:56.127Z,-2.11
2023-01-26T03:39:28.276Z,-2.11
2023-01-26T03:39:59.673Z,-2.11
2023-01-26T03:40:33.065Z,-2.11
2023-01-26T03:41:04.282Z,-2.11
2023-01-26T03:41:38.225Z,-2.11
2023-01-26T03:42:00.958Z,-2.11
2023-01-26T03:42:22.262Z,-2.11
2023-01-26T03:42:56.255Z,-2.11
2023-01-26T03:43:27.584Z,-2.11
2023-01-26T03:44:02.026Z,-2.11
2023-01-26T03:44:36.599Z,-2.11
2023-01-26T03:45:04.454Z,-2.11
2023-01-26T03:45:38.645Z,-2.11
2023-01-26T03:46:00.693Z,-2.11
2023-01-26T03:46:22.107Z,-2.11
2023-01-26T03:46:56.268Z,-2.11
2023-01-26T03:47:28.915Z,-2.11
2023-01-26T03:48:00.604Z,-2.11
2023-01-26T03:48:33.358Z,-2.11
2023-01-26T03:49:07.397Z,-2.11
2023-01-26T03:49:30.095Z,-2.11
2023-01-26T03:50:04.925Z,-2.11
2023-01-26T03:50:39.722Z,-2.11
2023-01-26T03:51:02.415Z,-2.11
2023-01-26T03:51:24.836Z,-2.11
2023-01-26T03:51:59.924Z,-2.11
2023-01-26T03:52:31.755Z,-2.11
2023-01-26T03:53:04.018Z,-2.00
2023-01-26T03:53:35.526Z,-2.00
2023-01-26T03:53:58.346Z,-2.00
2023-01-26T03:54:20.940Z,-2.00
2023-01-26T03:54:55.639Z,-2.11
2023-01-26T03:55:28.051Z,-2.00
2023-01-26T03:55:59.676Z,-2.00
2023-01-26T03:56:31.540Z,-2.00
2023-01-26T03:57:03.719Z,-2.00
2023-01-26T03:57:32.806Z,-2.00
2023-01-26T03:58:04.679Z,-2.00
2023-01-26T03:58:40.829Z,-2.00
2023-01-26T03:59:03.136Z,-2.00
2023-01-26T03:59:25.441Z,-2.00
2023-01-26T03:59:59.672Z,-2.00
2023-01-26T04:00:31.863Z,-2.00
2023-01-26T04:01:03.611Z,-2.00
2023-01-26T04:01:32.976Z,-2.00
2023-01-26T04:02:04.570Z,-2.00
2023-01-26T04:02:41.193Z,-2.00
2023-01-26T04:03:02.446Z,-2.00
2023-01-26T04:03:24.497Z,-2.00
2023-01-26T04:03:59.912Z,-2.00
2023-01-26T04:04:32.022Z,-2.00
2023-01-26T04:05:03.674Z,-2.00
2023-01-26T04:05:33.046Z,-2.00
2023-01-26T04:06:16.209Z,-2.00
2023-01-26T04:06:43.318Z,-2.00
2023-01-26T04:07:06.823Z,-2.00
2023-01-26T04:07:25.731Z,-2.00
2023-01-26T04:07:59.685Z,-2.00
2023-01-26T04:08:31.546Z,-2.00
2023-01-26T04:09:03.619Z,-2.00
2023-01-26T04:09:35.524Z,-2.00
2023-01-26T04:09:58.254Z,-2.00
2023-01-26T04:10:20.627Z,-2.00
2023-01-26T04:10:55.958Z,-2.00
2023-01-26T04:11:27.600Z,-1.88
2023-01-26T04:11:59.643Z,-1.88
2023-01-26T04:12:31.597Z,-1.88
2023-01-26T04:13:03.683Z,-1.88
2023-01-26T04:13:38.575Z,-1.88
2023-01-26T04:13:59.450Z,-1.88
2023-01-26T04:14:21.764Z,-1.88
2023-01-26T04:14:55.635Z,-1.88
2023-01-26T04:15:27.661Z,-1.88
2023-01-26T04:16:01.210Z,-1.88
2023-01-26T04:16:31.814Z,-1.88
2023-01-26T04:17:03.590Z,-1.88
2023-01-26T04:17:37.741Z,-1.88
2023-01-26T04:17:59.351Z,-1.88
2023-01-26T04:18:21.703Z,-1.88
2023-01-26T04:18:55.685Z,-1.88
2023-01-26T04:19:27.784Z,-1.88
2023-01-26T04:19:59.560Z,-1.88
2023-01-26T04:20:31.610Z,-1.88
2023-01-26T04:21:03.912Z,-1.88
2023-01-26T04:21:32.961Z,-1.88
2023-01-26T04:22:04.577Z,-1.88
2023-01-26T04:22:39.827Z,-1.88
2023-01-26T04:23:03.202Z,-1.88
2023-01-26T04:23:25.341Z,-1.88
2023-01-26T04:23:59.744Z,-1.88
2023-01-26T04:24:31.553Z,-1.88
2023-01-26T04:25:03.727Z,-1.88
2023-01-26T04:25:35.628Z,-1.88
2023-01-26T04:25:58.293Z,-1.88
2023-01-26T04:26:20.656Z,-1.88
2023-01-26T04:26:55.790Z,-1.88
2023-01-26T04:27:27.704Z,-1.77
2023-01-26T04:28:00.427Z,-1.77
2023-01-26T04:28:31.869Z,-1.77
2023-01-26T04:29:03.555Z,-1.77
2023-01-26T04:29:35.494Z,-1.77
2023-01-26T04:30:05.148Z,-1.77
2023-01-26T04:30:39.754Z,-1.77
2023-01-26T04:31:02.585Z,-1.77
2023-01-26T04:31:24.956Z,-1.77
2023-01-26T04:31:59.701Z,-1.77
2023-01-26T04:32:29.058Z,-1.77
2023-01-26T04:33:03.773Z,-1.77
2023-01-26T04:33:33.172Z,-1.77
2023-01-26T04:34:08.031Z,-1.77
2023-01-26T04:34:39.701Z,-1.77
2023-01-26T04:35:02.373Z,-1.77
2023-01-26T04:35:24.684Z,-1.77
2023-01-26T04:35:59.924Z,-1.77
2023-01-26T04:36:31.836Z,-1.77
2023-01-26T04:37:03.954Z,-1.77
2023-01-26T04:37:35.909Z,-1.77
2023-01-26T04:37:58.265Z,-1.77
2023-01-26T04:38:20.834Z,-1.77
2023-01-26T04:38:55.669Z,-1.77
2023-01-26T04:39:27.883Z,-1.77
2023-01-26T04:39:59.715Z,-1.77
2023-01-26T04:40:31.887Z,-1.77
2023-01-26T04:41:04.323Z,-1.77
2023-01-26T04:41:35.903Z,-1.77
2023-01-26T04:41:58.499Z,-1.72
2023-01-26T04:42:21.060Z,-1.72
2023-01-26T04:42:55.908Z,-1.72
2023-01-26T04:43:27.648Z,-1.72
2023-01-26T04:44:00.172Z,-1.72
2023-01-26T04:44:36.974Z,-1.72
2023-01-26T04:44:58.526Z,-1.72
2023-01-26T04:45:33.019Z,-1.72
2023-01-26T04:46:05.111Z,-1.72
2023-01-26T04:46:41.093Z,-1.72
2023-01-26T04:47:02.663Z,-1.72
2023-01-26T04:47:25.140Z,-1.72
2023-01-26T04:47:59.632Z,-1.72
2023-01-26T04:48:33.180Z,-1.72
2023-01-26T04:49:03.814Z,-1.72
2023-01-26T04:49:34.446Z,-1.72
2023-01-26T04:49:58.421Z,-1.72
2023-01-26T04:50:20.767Z,-1.77
2023-01-26T04:50:55.836Z,-1.77
2023-01-26T04:51:28.221Z,-1.77
2023-01-26T04:51:59.895Z,-1.77
2023-01-26T04:52:31.950Z,-1.77
2023-01-26T04:53:00.466Z,-1.77
2023-01-26T04:53:34.274Z,-1.77
2023-01-26T04:54:04.529Z,-1.77
2023-01-26T04:54:40.437Z,-1.77
2023-01-26T04:55:02.915Z,-1.77
2023-01-26T04:55:29.150Z,-1.77
2023-01-26T04:56:01.925Z,-1.77
2023-01-26T04:56:31.671Z,-1.77
2023-01-26T04:57:03.814Z,-1.88
2023-01-26T04:57:35.621Z,-1.88
2023-01-26T04:57:58.460Z,-1.88
2023-01-26T04:58:29.288Z,-1.88
2023-01-26T04:58:55.754Z,-1.77
2023-01-26T04:59:28.703Z,-1.77
2023-01-26T04:59:59.677Z,-1.77
2023-01-26T05:00:32.477Z,-1.77
2023-01-26T05:01:03.704Z,-1.77
2023-01-26T05:01:33.056Z,-1.77
2023-01-26T05:02:09.545Z,-1.77
2023-01-26T05:02:42.037Z,-1.88
2023-01-26T05:03:04.676Z,-1.88
2023-01-26T05:03:27.261Z,-1.88
2023-01-26T05:04:00.028Z,-1.88
2023-01-26T05:04:32.449Z,-1.88
2023-01-26T05:05:04.889Z,-1.88
2023-01-26T05:05:36.075Z,-1.88
2023-01-26T05:05:58.939Z,-1.88
2023-01-26T05:06:22.542Z,-1.88
2023-01-26T05:06:56.154Z,-1.88
2023-01-26T05:07:28.997Z,-1.88
2023-01-26T05:07:59.702Z,-1.77
2023-01-26T05:08:31.951Z,-1.77
2023-01-26T05:09:04.142Z,-1.77
2023-01-26T05:09:40.376Z,-1.77
2023-01-26T05:10:01.591Z,-1.77
2023-01-26T05:10:40.492Z,-1.77
2023-01-26T05:11:06.642Z,-1.77
2023-01-26T05:11:25.540Z,-1.77
2023-01-26T05:12:00.111Z,-1.77
2023-01-26T05:12:31.850Z,-1.77
2023-01-26T05:13:04.143Z,-1.77
2023-01-26T05:13:35.708Z,-1.77
2023-01-26T05:13:58.520Z,-1.77
2023-01-26T05:14:21.979Z,-1.77
2023-01-26T05:15:05.266Z,-1.77
2023-01-26T05:15:27.329Z,-1.77
2023-01-26T05:16:02.158Z,-1.77
2023-01-26T05:16:31.713Z,-1.77
2023-01-26T05:17:03.886Z,-1.77
2023-01-26T05:17:41.182Z,-1.77
2023-01-26T05:17:59.835Z,-1.77
2023-01-26T05:18:21.961Z,-1.77
2023-01-26T05:18:55.690Z,-1.77
2023-01-26T05:19:27.715Z,-1.77
2023-01-26T05:19:59.717Z,-1.72
2023-01-26T05:20:31.678Z,-1.72
2023-01-26T05:21:03.629Z,-1.72
2023-01-26T05:21:33.009Z,-1.72
2023-01-26T05:22:04.539Z,-1.72
2023-01-26T05:22:39.895Z,-1.72
2023-01-26T05:23:02.549Z,-1.72
2023-01-26T05:23:24.970Z,-1.72
2023-01-26T05:23:59.745Z,-1.72
2023-01-26T05:24:31.647Z,-1.72
2023-01-26T05:25:03.604Z,-1.72
2023-01-26T05:25:35.892Z,-1.72
2023-01-26T05:25:59.068Z,-1.72
2023-01-26T05:26:23.315Z,-1.72
2023-01-26T05:26:55.740Z,-1.72
2023-01-26T05:27:27.693Z,-1.72
2023-01-26T05:27:59.715Z,-1.72
2023-01-26T05:28:31.885Z,-1.72
2023-01-26T05:29:05.297Z,-1.72
2023-01-26T05:29:41.084Z,-1.72
2023-01-26T05:29:58.614Z,-1.72
2023-01-26T05:30:21.073Z,-1.72
2023-01-26T05:30:56.008Z,-1.72
2023-01-26T05:31:27.693Z,-1.72
2023-01-26T05:31:59.767Z,-1.72
2023-01-26T05:32:31.708Z,-1.72
2023-01-26T05:33:03.715Z,-1.72
2023-01-26T05:33:33.116Z,-1.72
2023-01-26T05:34:04.561Z,-1.72
2023-01-26T05:34:39.774Z,-1.72
2023-01-26T05:35:03.709Z,-1.72
2023-01-26T05:35:25.889Z,-1.72
2023-01-26T05:35:59.827Z,-1.72
2023-01-26T05:36:31.601Z,-1.72
2023-01-26T05:37:03.995Z,-1.72
2023-01-26T05:37:32.978Z,-1.72
2023-01-26T05:38:04.563Z,-1.72
2023-01-26T05:38:39.692Z,-1.72
2023-01-26T05:39:05.879Z,-1.72
2023-01-26T05:39:44.064Z,-1.72
2023-01-26T05:40:06.515Z,-1.72
2023-01-26T05:40:29.076Z,-1.72
2023-01-26T05:41:07.185Z,-1.72
2023-01-26T05:41:36.104Z,-1.72
2023-01-26T05:41:59.352Z,-1.72
2023-01-26T05:42:21.673Z,-1.72
2023-01-26T05:42:55.725Z,-1.72
2023-01-26T05:43:27.680Z,-1.72
2023-01-26T05:44:00.016Z,-1.72
2023-01-26T05:44:31.697Z,-1.72
2023-01-26T05:45:04.065Z,-1.72
2023-01-26T05:45:35.732Z,-1.72
2023-01-26T05:45:58.905Z,-1.72
2023-01-26T05:46:21.027Z,-1.72
2023-01-26T05:46:55.615Z,-1.72
2023-01-26T05:47:27.836Z,-1.72
2023-01-26T05:48:01.547Z,-1.72
2023-01-26T05:48:32.043Z,-1.72
2023-01-26T05:49:03.860Z,-1.72
2023-01-26T05:49:35.724Z,-1.72
2023-01-26T05:49:58.501Z,-1.72
2023-01-26T05:50:20.873Z,-1.72
2023-01-26T05:50:56.268Z,-1.72
2023-01-26T05:51:21.878Z,-1.72
2023-01-26T05:52:02.946Z,-1.72
2023-01-26T05:52:33.500Z,-1.72
2023-01-26T05:53:04.140Z,-1.72
2023-01-26T05:53:36.831Z,-1.72
2023-01-26T05:53:59.582Z,-1.72
2023-01-26T05:54:21.939Z,-1.72
2023-01-26T05:54:56.439Z,-1.72
2023-01-26T05:55:28.160Z,-1.72
2023-01-26T05:56:00.961Z,-1.72
2023-01-26T05:56:31.693Z,-1.72
2023-01-26T05:57:03.925Z,-1.72
2023-01-26T05:57:35.709Z,-1.72
2023-01-26T05:57:58.566Z,-1.72
2023-01-26T05:58:21.817Z,-1.72
2023-01-26T05:58:56.986Z,-1.72
2023-01-26T05:59:28.146Z,-1.72
2023-01-26T06:00:00.261Z,-1.72
2023-01-26T06:00:31.863Z,-1.72
2023-01-26T06:01:04.548Z,-1.72
2023-01-26T06:01:35.883Z,-1.72
2023-01-26T06:01:58.636Z,-1.72
2023-01-26T06:02:21.055Z,-1.72
2023-01-26T06:02:59.604Z,-1.72
2023-01-26T06:03:33.131Z,-1.77
2023-01-26T06:03:54.252Z,-1.77
2023-01-26T06:04:32.021Z,-1.77
2023-01-26T06:05:03.960Z,-1.77
2023-01-26T06:05:35.748Z,-1.77
2023-01-26T06:05:58.569Z,-1.77
2023-01-26T06:06:20.919Z,-1.77
2023-01-26T06:06:58.329Z,-1.72
2023-01-26T06:07:27.602Z,-1.77
2023-01-26T06:07:59.612Z,-1.72
2023-01-26T06:08:31.716Z,-1.61
2023-01-26T06:09:03.856Z,-1.61
2023-01-26T06:09:32.872Z,-1.61
2023-01-26T06:10:04.654Z,-1.61
2023-01-26T06:10:39.812Z,-1.61
2023-01-26T06:11:02.597Z,-1.61
2023-01-26T06:11:24.877Z,-1.61
2023-01-26T06:11:59.703Z,-1.61
2023-01-26T06:12:31.719Z,-1.61
2023-01-26T06:13:03.922Z,-1.61
2023-01-26T06:13:35.647Z,-1.61
2023-01-26T06:13:58.942Z,-1.61
2023-01-26T06:14:20.901Z,-1.61
2023-01-26T06:14:55.809Z,-1.61
2023-01-26T06:15:27.808Z,-1.61
2023-01-26T06:16:01.260Z,-1.61
2023-01-26T06:16:31.858Z,-1.61
2023-01-26T06:17:03.777Z,-1.61
2023-01-26T06:17:40.371Z,-1.61
2023-01-26T06:17:59.370Z,-1.61
2023-01-26T06:18:21.200Z,-1.61
2023-01-26T06:18:55.747Z,-1.61
2023-01-26T06:19:27.590Z,-1.61
2023-01-26T06:19:59.707Z,-1.61
2023-01-26T06:20:32.047Z,-1.61
2023-01-26T06:21:03.665Z,-1.61
2023-01-26T06:21:35.723Z,-1.61
2023-01-26T06:21:59.797Z,-1.61
2023-01-26T06:22:20.779Z,-1.61
2023-01-26T06:22:57.159Z,-1.61
2023-01-26T06:23:27.714Z,-1.50
2023-01-26T06:24:00.294Z,-1.50
2023-01-26T06:24:31.852Z,-1.50
2023-01-26T06:25:03.683Z,-1.50
2023-01-26T06:25:35.749Z,-1.50
2023-01-26T06:26:01.398Z,-1.50
2023-01-26T06:26:22.401Z,-1.50
2023-01-26T06:26:55.664Z,-1.50
2023-01-26T06:27:27.837Z,-1.50
2023-01-26T06:28:01.025Z,-1.50
2023-01-26T06:28:31.690Z,-1.50
2023-01-26T06:29:06.547Z,-1.61
2023-01-26T06:29:39.178Z,-1.61